sensor_id;sensor_type;location;lat;lon;timestamp;temperature;humidity
4910;DHT22;2470;49.868;8.660;2022-08-11T00:00:59;23.40;43.80
4910;DHT22;2470;49.868;8.660;2022-08-11T00:03:29;23.40;44.10
4910;DHT22;2470;49.868;8.660;2022-08-11T00:05:56;23.40;44.40
4910;DHT22;2470;49.868;8.660;2022-08-11T00:08:28;23.30;44.20
4910;DHT22;2470;49.868;8.660;2022-08-11T00:11:00;23.30;44.30
4910;DHT22;2470;49.868;8.660;2022-08-11T00:13:39;23.30;44.60
4910;DHT22;2470;49.868;8.660;2022-08-11T00:16:17;23.30;44.40
4910;DHT22;2470;49.868;8.660;2022-08-11T00:18:46;23.30;44.40
4910;DHT22;2470;49.868;8.660;2022-08-11T00:21:12;23.20;44.20
4910;DHT22;2470;49.868;8.660;2022-08-11T00:23:44;23.20;44.20
4910;DHT22;2470;49.868;8.660;2022-08-11T00:26:12;23.10;44.00
4910;DHT22;2470;49.868;8.660;2022-08-11T00:28:38;23.10;44.00
4910;DHT22;2470;49.868;8.660;2022-08-11T00:31:08;23.00;44.10
4910;DHT22;2470;49.868;8.660;2022-08-11T00:33:41;23.00;44.10
4910;DHT22;2470;49.868;8.660;2022-08-11T00:36:08;22.90;44.10
4910;DHT22;2470;49.868;8.660;2022-08-11T00:38:37;22.90;44.30
4910;DHT22;2470;49.868;8.660;2022-08-11T00:41:19;22.90;44.50
4910;DHT22;2470;49.868;8.660;2022-08-11T00:49:57;22.90;44.60
4910;DHT22;2470;49.868;8.660;2022-08-11T01:13:08;22.80;44.80
4910;DHT22;2470;49.868;8.660;2022-08-11T01:16:24;22.80;44.80
4910;DHT22;2470;49.868;8.660;2022-08-11T01:36:59;22.70;45.00
4910;DHT22;2470;49.868;8.660;2022-08-11T01:40:11;22.70;45.10
4910;DHT22;2470;49.868;8.660;2022-08-11T01:46:03;22.70;45.20
4910;DHT22;2470;49.868;8.660;2022-08-11T01:54:23;22.60;45.20
4910;DHT22;2470;49.868;8.660;2022-08-11T01:59:57;22.50;45.20
4910;DHT22;2470;49.868;8.660;2022-08-11T02:05:40;22.50;45.60
4910;DHT22;2470;49.868;8.660;2022-08-11T02:08:24;22.50;45.40
4910;DHT22;2470;49.868;8.660;2022-08-11T02:14:14;22.50;45.30
4910;DHT22;2470;49.868;8.660;2022-08-11T02:17:06;22.40;45.30
4910;DHT22;2470;49.868;8.660;2022-08-11T02:22:55;22.40;45.40
4910;DHT22;2470;49.868;8.660;2022-08-11T02:26:01;22.30;45.50
4910;DHT22;2470;49.868;8.660;2022-08-11T02:37:24;22.20;46.00
4910;DHT22;2470;49.868;8.660;2022-08-11T02:40:07;22.20;46.30
4910;DHT22;2470;49.868;8.660;2022-08-11T02:42:56;22.10;46.20
4910;DHT22;2470;49.868;8.660;2022-08-11T02:45:39;22.20;46.20
4910;DHT22;2470;49.868;8.660;2022-08-11T02:48:37;22.10;46.60
4910;DHT22;2470;49.868;8.660;2022-08-11T02:57:20;21.90;47.50
4910;DHT22;2470;49.868;8.660;2022-08-11T02:59:59;21.80;47.60
4910;DHT22;2470;49.868;8.660;2022-08-11T03:07:42;21.70;48.20
4910;DHT22;2470;49.868;8.660;2022-08-11T03:13:18;21.60;48.50
4910;DHT22;2470;49.868;8.660;2022-08-11T03:16:18;21.60;48.70
4910;DHT22;2470;49.868;8.660;2022-08-11T03:22:24;21.50;49.20
4910;DHT22;2470;49.868;8.660;2022-08-11T03:25:13;21.50;49.30
4910;DHT22;2470;49.868;8.660;2022-08-11T03:27:59;21.50;49.10
4910;DHT22;2470;49.868;8.660;2022-08-11T03:33:32;21.50;49.00
4910;DHT22;2470;49.868;8.660;2022-08-11T03:42:09;21.50;49.30
4910;DHT22;2470;49.868;8.660;2022-08-11T03:45:49;21.50;49.40
4910;DHT22;2470;49.868;8.660;2022-08-11T03:50:59;21.40;49.40
4910;DHT22;2470;49.868;8.660;2022-08-11T03:53:43;21.40;49.40
4910;DHT22;2470;49.868;8.660;2022-08-11T03:56:36;21.40;50.00
4910;DHT22;2470;49.868;8.660;2022-08-11T03:59:26;21.30;49.40
4910;DHT22;2470;49.868;8.660;2022-08-11T04:02:13;21.30;49.40
4910;DHT22;2470;49.868;8.660;2022-08-11T04:08:13;21.40;49.30
4910;DHT22;2470;49.868;8.660;2022-08-11T04:10:55;21.30;49.10
4910;DHT22;2470;49.868;8.660;2022-08-11T04:17:07;21.30;48.90
4910;DHT22;2470;49.868;8.660;2022-08-11T04:25:06;21.30;49.20
4910;DHT22;2470;49.868;8.660;2022-08-11T04:31:01;21.30;49.40
4910;DHT22;2470;49.868;8.660;2022-08-11T04:33:34;21.30;49.40
4910;DHT22;2470;49.868;8.660;2022-08-11T04:36:30;21.30;49.20
4910;DHT22;2470;49.868;8.660;2022-08-11T04:45:54;21.30;49.30
4910;DHT22;2470;49.868;8.660;2022-08-11T04:54:57;21.40;49.20
4910;DHT22;2470;49.868;8.660;2022-08-11T04:58:14;21.40;49.00
4910;DHT22;2470;49.868;8.660;2022-08-11T05:01:17;21.40;49.00
4910;DHT22;2470;49.868;8.660;2022-08-11T05:07:25;21.50;49.10
4910;DHT22;2470;49.868;8.660;2022-08-11T05:12:48;21.60;49.00
4910;DHT22;2470;49.868;8.660;2022-08-11T05:15:20;21.60;48.90
4910;DHT22;2470;49.868;8.660;2022-08-11T05:18:12;21.60;48.80
4910;DHT22;2470;49.868;8.660;2022-08-11T05:21:04;21.70;48.90
4910;DHT22;2470;49.868;8.660;2022-08-11T05:24:11;21.70;48.90
4910;DHT22;2470;49.868;8.660;2022-08-11T05:27:01;21.70;48.80
4910;DHT22;2470;49.868;8.660;2022-08-11T05:33:03;21.70;48.80
4910;DHT22;2470;49.868;8.660;2022-08-11T05:35:49;21.80;48.80
4910;DHT22;2470;49.868;8.660;2022-08-11T05:38:23;21.80;48.90
4910;DHT22;2470;49.868;8.660;2022-08-11T05:41:12;21.80;48.90
4910;DHT22;2470;49.868;8.660;2022-08-11T05:43:58;21.90;48.90
4910;DHT22;2470;49.868;8.660;2022-08-11T05:46:43;22.00;49.10
4910;DHT22;2470;49.868;8.660;2022-08-11T05:49:30;22.00;49.00
4910;DHT22;2470;49.868;8.660;2022-08-11T05:52:16;22.10;49.00
4910;DHT22;2470;49.868;8.660;2022-08-11T05:55:04;22.20;49.10
4910;DHT22;2470;49.868;8.660;2022-08-11T05:57:54;22.30;49.30
4910;DHT22;2470;49.868;8.660;2022-08-11T06:00:21;22.30;49.20
4910;DHT22;2470;49.868;8.660;2022-08-11T06:02:51;22.40;49.30
4910;DHT22;2470;49.868;8.660;2022-08-11T06:05:19;22.40;49.40
4910;DHT22;2470;49.868;8.660;2022-08-11T06:07:46;22.50;49.30
4910;DHT22;2470;49.868;8.660;2022-08-11T06:10:12;22.60;48.90
4910;DHT22;2470;49.868;8.660;2022-08-11T06:12:40;22.70;48.80
4910;DHT22;2470;49.868;8.660;2022-08-11T06:15:09;22.80;48.80
4910;DHT22;2470;49.868;8.660;2022-08-11T06:17:43;22.80;48.70
4910;DHT22;2470;49.868;8.660;2022-08-11T06:20:11;22.90;48.80
4910;DHT22;2470;49.868;8.660;2022-08-11T06:22:39;22.90;48.60
4910;DHT22;2470;49.868;8.660;2022-08-11T06:25:07;22.90;48.50
4910;DHT22;2470;49.868;8.660;2022-08-11T06:27:35;22.90;48.20
4910;DHT22;2470;49.868;8.660;2022-08-11T06:30:03;23.00;48.40
4910;DHT22;2470;49.868;8.660;2022-08-11T06:32:42;23.10;48.30
4910;DHT22;2470;49.868;8.660;2022-08-11T06:35:22;23.10;48.20
4910;DHT22;2470;49.868;8.660;2022-08-11T06:38:04;23.10;47.90
4910;DHT22;2470;49.868;8.660;2022-08-11T06:40:50;23.20;48.10
4910;DHT22;2470;49.868;8.660;2022-08-11T06:43:53;23.20;48.00
4910;DHT22;2470;49.868;8.660;2022-08-11T06:46:30;23.30;47.90
4910;DHT22;2470;49.868;8.660;2022-08-11T06:49:00;23.30;47.90
4910;DHT22;2470;49.868;8.660;2022-08-11T06:51:26;23.40;47.70
4910;DHT22;2470;49.868;8.660;2022-08-11T06:53:55;23.40;47.60
4910;DHT22;2470;49.868;8.660;2022-08-11T06:56:25;23.50;47.40
4910;DHT22;2470;49.868;8.660;2022-08-11T06:59:11;23.50;47.40
4910;DHT22;2470;49.868;8.660;2022-08-11T07:07:24;23.80;47.00
4910;DHT22;2470;49.868;8.660;2022-08-11T07:10:31;23.90;46.80
4910;DHT22;2470;49.868;8.660;2022-08-11T07:13:18;23.90;46.60
4910;DHT22;2470;49.868;8.660;2022-08-11T07:16:05;24.00;46.50
4910;DHT22;2470;49.868;8.660;2022-08-11T07:18:35;24.10;46.70
4910;DHT22;2470;49.868;8.660;2022-08-11T07:21:27;24.10;46.50
4910;DHT22;2470;49.868;8.660;2022-08-11T07:24:20;24.20;46.60
4910;DHT22;2470;49.868;8.660;2022-08-11T07:27:10;24.30;47.10
4910;DHT22;2470;49.868;8.660;2022-08-11T07:29:57;24.30;46.50
4910;DHT22;2470;49.868;8.660;2022-08-11T07:32:30;24.40;46.40
4910;DHT22;2470;49.868;8.660;2022-08-11T07:35:14;24.40;46.60
4910;DHT22;2470;49.868;8.660;2022-08-11T07:37:44;24.50;46.50
4910;DHT22;2470;49.868;8.660;2022-08-11T07:40:12;24.50;46.40
4910;DHT22;2470;49.868;8.660;2022-08-11T07:42:38;24.60;46.20
4910;DHT22;2470;49.868;8.660;2022-08-11T07:45:07;24.60;46.20
4910;DHT22;2470;49.868;8.660;2022-08-11T07:47:53;24.70;46.30
4910;DHT22;2470;49.868;8.660;2022-08-11T07:50:45;24.70;46.20
4910;DHT22;2470;49.868;8.660;2022-08-11T07:53:31;24.80;46.40
4910;DHT22;2470;49.868;8.660;2022-08-11T07:55:59;24.90;46.50
4910;DHT22;2470;49.868;8.660;2022-08-11T07:58:25;25.00;46.30
4910;DHT22;2470;49.868;8.660;2022-08-11T08:01:11;25.00;46.30
4910;DHT22;2470;49.868;8.660;2022-08-11T08:03:57;25.00;46.30
4910;DHT22;2470;49.868;8.660;2022-08-11T08:06:42;25.10;46.00
4910;DHT22;2470;49.868;8.660;2022-08-11T08:09:27;25.20;45.60
4910;DHT22;2470;49.868;8.660;2022-08-11T08:12:12;25.30;45.60
4910;DHT22;2470;49.868;8.660;2022-08-11T08:14:58;25.30;45.80
4910;DHT22;2470;49.868;8.660;2022-08-11T08:17:44;25.30;45.70
4910;DHT22;2470;49.868;8.660;2022-08-11T08:20:19;25.30;45.80
4910;DHT22;2470;49.868;8.660;2022-08-11T08:22:49;25.30;45.90
4910;DHT22;2470;49.868;8.660;2022-08-11T08:25:40;25.30;45.80
4910;DHT22;2470;49.868;8.660;2022-08-11T08:28:10;25.30;46.00
4910;DHT22;2470;49.868;8.660;2022-08-11T08:30:39;25.40;46.80
4910;DHT22;2470;49.868;8.660;2022-08-11T08:33:22;25.40;46.20
4910;DHT22;2470;49.868;8.660;2022-08-11T08:35:52;25.50;46.00
4910;DHT22;2470;49.868;8.660;2022-08-11T08:38:37;25.50;45.60
4910;DHT22;2470;49.868;8.660;2022-08-11T08:41:04;25.70;45.60
4910;DHT22;2470;49.868;8.660;2022-08-11T08:43:30;25.70;45.60
4910;DHT22;2470;49.868;8.660;2022-08-11T08:45:57;25.80;45.80
4910;DHT22;2470;49.868;8.660;2022-08-11T08:48:25;25.90;45.60
4910;DHT22;2470;49.868;8.660;2022-08-11T08:51:00;25.90;45.40
4910;DHT22;2470;49.868;8.660;2022-08-11T08:53:51;26.00;45.10
4910;DHT22;2470;49.868;8.660;2022-08-11T08:56:17;26.10;44.50
4910;DHT22;2470;49.868;8.660;2022-08-11T08:58:47;26.00;44.60
4910;DHT22;2470;49.868;8.660;2022-08-11T09:01:15;26.10;44.00
4910;DHT22;2470;49.868;8.660;2022-08-11T09:03:41;26.20;43.90
4910;DHT22;2470;49.868;8.660;2022-08-11T09:06:08;26.20;43.90
4910;DHT22;2470;49.868;8.660;2022-08-11T09:08:35;26.30;44.00
4910;DHT22;2470;49.868;8.660;2022-08-11T09:11:03;26.40;44.20
4910;DHT22;2470;49.868;8.660;2022-08-11T09:13:48;26.40;44.20
4910;DHT22;2470;49.868;8.660;2022-08-11T09:16:15;26.50;43.30
4910;DHT22;2470;49.868;8.660;2022-08-11T09:18:42;26.50;43.10
4910;DHT22;2470;49.868;8.660;2022-08-11T09:21:14;26.60;43.10
4910;DHT22;2470;49.868;8.660;2022-08-11T09:23:41;26.70;42.60
4910;DHT22;2470;49.868;8.660;2022-08-11T09:26:27;26.90;42.30
4910;DHT22;2470;49.868;8.660;2022-08-11T09:29:22;26.90;42.20
4910;DHT22;2470;49.868;8.660;2022-08-11T09:31:48;26.90;42.10
4910;DHT22;2470;49.868;8.660;2022-08-11T09:34:14;27.00;42.10
4910;DHT22;2470;49.868;8.660;2022-08-11T09:36:42;27.00;41.90
4910;DHT22;2470;49.868;8.660;2022-08-11T09:39:30;27.00;41.60
4910;DHT22;2470;49.868;8.660;2022-08-11T09:42:19;27.00;41.50
4910;DHT22;2470;49.868;8.660;2022-08-11T09:44:45;27.10;41.10
4910;DHT22;2470;49.868;8.660;2022-08-11T09:47:25;27.20;41.60
4910;DHT22;2470;49.868;8.660;2022-08-11T09:49:56;27.20;41.50
4910;DHT22;2470;49.868;8.660;2022-08-11T09:52:24;27.20;41.10
4910;DHT22;2470;49.868;8.660;2022-08-11T09:54:51;27.20;40.30
4910;DHT22;2470;49.868;8.660;2022-08-11T09:57:20;27.40;39.60
4910;DHT22;2470;49.868;8.660;2022-08-11T10:00:10;27.40;39.90
4910;DHT22;2470;49.868;8.660;2022-08-11T10:02:46;27.30;40.20
4910;DHT22;2470;49.868;8.660;2022-08-11T10:05:15;27.40;40.30
4910;DHT22;2470;49.868;8.660;2022-08-11T10:08:00;27.40;40.80
4910;DHT22;2470;49.868;8.660;2022-08-11T10:10:26;27.50;40.60
4910;DHT22;2470;49.868;8.660;2022-08-11T10:13:00;27.60;40.60
4910;DHT22;2470;49.868;8.660;2022-08-11T10:15:30;27.80;39.90
4910;DHT22;2470;49.868;8.660;2022-08-11T10:18:07;27.80;40.00
4910;DHT22;2470;49.868;8.660;2022-08-11T10:20:59;27.70;40.10
4910;DHT22;2470;49.868;8.660;2022-08-11T10:23:29;27.80;40.00
4910;DHT22;2470;49.868;8.660;2022-08-11T10:26:17;27.80;40.10
4910;DHT22;2470;49.868;8.660;2022-08-11T10:29:02;27.80;39.00
4910;DHT22;2470;49.868;8.660;2022-08-11T10:31:50;27.80;38.50
4910;DHT22;2470;49.868;8.660;2022-08-11T10:34:36;27.70;39.20
4910;DHT22;2470;49.868;8.660;2022-08-11T10:37:02;27.80;39.10
4910;DHT22;2470;49.868;8.660;2022-08-11T10:39:28;27.80;37.80
4910;DHT22;2470;49.868;8.660;2022-08-11T10:41:55;27.90;37.70
4910;DHT22;2470;49.868;8.660;2022-08-11T10:44:42;28.00;38.40
4910;DHT22;2470;49.868;8.660;2022-08-11T10:47:11;28.10;38.00
4910;DHT22;2470;49.868;8.660;2022-08-11T10:49:57;28.10;37.60
4910;DHT22;2470;49.868;8.660;2022-08-11T10:52:43;28.20;37.40
4910;DHT22;2470;49.868;8.660;2022-08-11T10:55:28;28.30;37.20
4910;DHT22;2470;49.868;8.660;2022-08-11T10:58:13;28.30;37.20
4910;DHT22;2470;49.868;8.660;2022-08-11T11:00:58;28.40;37.10
4910;DHT22;2470;49.868;8.660;2022-08-11T11:03:27;28.40;37.10
4910;DHT22;2470;49.868;8.660;2022-08-11T11:05:56;28.30;37.00
4910;DHT22;2470;49.868;8.660;2022-08-11T11:08:28;28.40;37.00
4910;DHT22;2470;49.868;8.660;2022-08-11T11:11:14;28.60;36.50
4910;DHT22;2470;49.868;8.660;2022-08-11T11:13:45;28.70;36.70
4910;DHT22;2470;49.868;8.660;2022-08-11T11:16:41;28.80;36.70
4910;DHT22;2470;49.868;8.660;2022-08-11T11:19:26;28.80;37.20
4910;DHT22;2470;49.868;8.660;2022-08-11T11:21:53;28.90;36.90
4910;DHT22;2470;49.868;8.660;2022-08-11T11:25:12;29.00;36.90
4910;DHT22;2470;49.868;8.660;2022-08-11T11:27:54;29.10;37.20
4910;DHT22;2470;49.868;8.660;2022-08-11T11:30:23;29.10;37.00
4910;DHT22;2470;49.868;8.660;2022-08-11T11:37:54;29.30;36.50
4910;DHT22;2470;49.868;8.660;2022-08-11T11:40:22;29.30;36.50
4910;DHT22;2470;49.868;8.660;2022-08-11T11:42:50;29.30;36.40
4910;DHT22;2470;49.868;8.660;2022-08-11T11:45:21;29.40;36.60
4910;DHT22;2470;49.868;8.660;2022-08-11T11:47:48;29.50;35.60
4910;DHT22;2470;49.868;8.660;2022-08-11T11:50:32;29.60;35.60
4910;DHT22;2470;49.868;8.660;2022-08-11T11:53:04;29.70;36.20
4910;DHT22;2470;49.868;8.660;2022-08-11T11:55:31;29.80;35.40
4910;DHT22;2470;49.868;8.660;2022-08-11T11:58:00;29.80;35.70
4910;DHT22;2470;49.868;8.660;2022-08-11T12:00:45;30.00;35.70
4910;DHT22;2470;49.868;8.660;2022-08-11T12:03:31;30.10;34.90
4910;DHT22;2470;49.868;8.660;2022-08-11T12:05:57;30.20;34.10
4910;DHT22;2470;49.868;8.660;2022-08-11T12:08:24;30.40;33.90
4910;DHT22;2470;49.868;8.660;2022-08-11T12:10:58;30.30;33.70
4910;DHT22;2470;49.868;8.660;2022-08-11T12:13:46;30.30;33.60
4910;DHT22;2470;49.868;8.660;2022-08-11T12:16:13;30.40;33.50
4910;DHT22;2470;49.868;8.660;2022-08-11T12:18:41;30.50;33.30
4910;DHT22;2470;49.868;8.660;2022-08-11T12:21:08;30.60;33.60
4910;DHT22;2470;49.868;8.660;2022-08-11T12:23:35;30.60;33.70
4910;DHT22;2470;49.868;8.660;2022-08-11T12:26:20;30.70;33.20
4910;DHT22;2470;49.868;8.660;2022-08-11T12:29:06;30.90;34.00
4910;DHT22;2470;49.868;8.660;2022-08-11T12:31:32;31.00;33.50
4910;DHT22;2470;49.868;8.660;2022-08-11T12:34:03;31.10;32.60
4910;DHT22;2470;49.868;8.660;2022-08-11T12:36:34;31.20;32.30
4910;DHT22;2470;49.868;8.660;2022-08-11T12:39:01;31.30;32.80
4910;DHT22;2470;49.868;8.660;2022-08-11T12:41:28;31.60;32.50
4910;DHT22;2470;49.868;8.660;2022-08-11T12:44:13;32.40;31.60
4910;DHT22;2470;49.868;8.660;2022-08-11T12:47:10;33.40;31.30
4910;DHT22;2470;49.868;8.660;2022-08-11T12:49:43;35.50;29.40
4910;DHT22;2470;49.868;8.660;2022-08-11T12:52:33;36.90;27.20
4910;DHT22;2470;49.868;8.660;2022-08-11T12:55:05;38.50;26.80
4910;DHT22;2470;49.868;8.660;2022-08-11T12:57:40;40.30;27.10
4910;DHT22;2470;49.868;8.660;2022-08-11T13:00:26;41.60;25.30
4910;DHT22;2470;49.868;8.660;2022-08-11T13:03:12;43.20;24.80
4910;DHT22;2470;49.868;8.660;2022-08-11T13:06:00;44.50;24.00
4910;DHT22;2470;49.868;8.660;2022-08-11T13:08:27;45.50;23.00
4910;DHT22;2470;49.868;8.660;2022-08-11T13:10:55;46.40;22.90
4910;DHT22;2470;49.868;8.660;2022-08-11T13:13:40;47.40;22.90
4910;DHT22;2470;49.868;8.660;2022-08-11T13:16:09;48.30;21.90
4910;DHT22;2470;49.868;8.660;2022-08-11T13:18:36;48.80;21.40
4910;DHT22;2470;49.868;8.660;2022-08-11T13:21:03;49.30;20.90
4910;DHT22;2470;49.868;8.660;2022-08-11T13:23:30;49.80;20.40
4910;DHT22;2470;49.868;8.660;2022-08-11T13:25:56;50.30;20.30
4910;DHT22;2470;49.868;8.660;2022-08-11T13:28:22;50.80;20.30
4910;DHT22;2470;49.868;8.660;2022-08-11T13:30:49;51.30;20.00
4910;DHT22;2470;49.868;8.660;2022-08-11T13:33:38;51.60;19.70
4910;DHT22;2470;49.868;8.660;2022-08-11T13:36:05;51.50;19.80
4910;DHT22;2470;49.868;8.660;2022-08-11T13:38:31;51.80;19.20
4910;DHT22;2470;49.868;8.660;2022-08-11T13:40:58;51.70;19.40
4910;DHT22;2470;49.868;8.660;2022-08-11T13:43:24;51.90;19.30
4910;DHT22;2470;49.868;8.660;2022-08-11T13:45:51;52.10;19.20
4910;DHT22;2470;49.868;8.660;2022-08-11T13:48:38;52.60;19.50
4910;DHT22;2470;49.868;8.660;2022-08-11T13:51:05;52.80;19.00
4910;DHT22;2470;49.868;8.660;2022-08-11T13:53:49;53.00;18.90
4910;DHT22;2470;49.868;8.660;2022-08-11T13:56:16;53.20;18.40
4910;DHT22;2470;49.868;8.660;2022-08-11T13:58:42;53.30;18.50
4910;DHT22;2470;49.868;8.660;2022-08-11T14:01:09;53.40;18.60
4910;DHT22;2470;49.868;8.660;2022-08-11T14:03:35;53.40;18.30
4910;DHT22;2470;49.868;8.660;2022-08-11T14:06:02;53.70;18.10
4910;DHT22;2470;49.868;8.660;2022-08-11T14:08:31;53.90;18.10
4910;DHT22;2470;49.868;8.660;2022-08-11T14:11:01;54.10;17.60
4910;DHT22;2470;49.868;8.660;2022-08-11T14:13:49;54.50;17.60
4910;DHT22;2470;49.868;8.660;2022-08-11T14:16:19;54.70;17.10
4910;DHT22;2470;49.868;8.660;2022-08-11T14:18:47;54.90;17.10
4910;DHT22;2470;49.868;8.660;2022-08-11T14:21:16;54.90;17.30
4910;DHT22;2470;49.868;8.660;2022-08-11T14:24:06;54.50;17.20
4910;DHT22;2470;49.868;8.660;2022-08-11T14:26:32;53.80;17.10
4910;DHT22;2470;49.868;8.660;2022-08-11T14:29:08;53.50;17.30
4910;DHT22;2470;49.868;8.660;2022-08-11T14:31:37;53.70;17.10
4910;DHT22;2470;49.868;8.660;2022-08-11T14:34:07;54.40;16.90
4910;DHT22;2470;49.868;8.660;2022-08-11T14:36:38;54.50;17.00
4910;DHT22;2470;49.868;8.660;2022-08-11T14:39:11;54.30;16.80
4910;DHT22;2470;49.868;8.660;2022-08-11T14:41:39;53.60;16.70
4910;DHT22;2470;49.868;8.660;2022-08-11T14:44:24;52.90;17.00
4910;DHT22;2470;49.868;8.660;2022-08-11T14:47:12;52.60;17.30
4910;DHT22;2470;49.868;8.660;2022-08-11T14:49:41;52.70;17.50
4910;DHT22;2470;49.868;8.660;2022-08-11T14:52:14;53.40;17.30
4910;DHT22;2470;49.868;8.660;2022-08-11T14:54:47;54.00;17.00
4910;DHT22;2470;49.868;8.660;2022-08-11T14:57:37;54.40;16.40
4910;DHT22;2470;49.868;8.660;2022-08-11T15:00:05;54.30;16.70
4910;DHT22;2470;49.868;8.660;2022-08-11T15:02:33;54.20;16.70
4910;DHT22;2470;49.868;8.660;2022-08-11T15:05:19;54.20;16.60
4910;DHT22;2470;49.868;8.660;2022-08-11T15:07:45;54.30;16.50
4910;DHT22;2470;49.868;8.660;2022-08-11T15:10:11;53.80;16.50
4910;DHT22;2470;49.868;8.660;2022-08-11T15:12:39;53.10;16.60
4910;DHT22;2470;49.868;8.660;2022-08-11T15:15:11;52.70;16.70
4910;DHT22;2470;49.868;8.660;2022-08-11T15:17:58;52.50;16.80
4910;DHT22;2470;49.868;8.660;2022-08-11T15:20:28;53.10;16.80
4910;DHT22;2470;49.868;8.660;2022-08-11T15:23:12;53.50;16.60
4910;DHT22;2470;49.868;8.660;2022-08-11T15:25:59;53.10;16.50
4910;DHT22;2470;49.868;8.660;2022-08-11T15:28:28;52.20;16.40
4910;DHT22;2470;49.868;8.660;2022-08-11T15:31:26;50.30;16.60
4910;DHT22;2470;49.868;8.660;2022-08-11T15:33:54;47.70;17.60
4910;DHT22;2470;49.868;8.660;2022-08-11T15:36:41;45.00;18.40
4910;DHT22;2470;49.868;8.660;2022-08-11T15:39:31;42.60;19.40
4910;DHT22;2470;49.868;8.660;2022-08-11T15:42:08;40.70;20.30
4910;DHT22;2470;49.868;8.660;2022-08-11T15:44:58;39.40;21.40
4910;DHT22;2470;49.868;8.660;2022-08-11T15:47:58;38.30;21.90
4910;DHT22;2470;49.868;8.660;2022-08-11T15:50:29;37.40;22.80
4910;DHT22;2470;49.868;8.660;2022-08-11T15:53:12;36.80;23.20
4910;DHT22;2470;49.868;8.660;2022-08-11T15:55:42;36.40;23.60
4910;DHT22;2470;49.868;8.660;2022-08-11T15:58:11;36.00;23.80
4910;DHT22;2470;49.868;8.660;2022-08-11T16:00:56;35.70;24.00
4910;DHT22;2470;49.868;8.660;2022-08-11T16:03:51;35.40;23.70
4910;DHT22;2470;49.868;8.660;2022-08-11T16:06:59;35.10;24.20
4910;DHT22;2470;49.868;8.660;2022-08-11T16:09:32;34.80;24.60
4910;DHT22;2470;49.868;8.660;2022-08-11T16:12:04;34.70;24.90
4910;DHT22;2470;49.868;8.660;2022-08-11T16:14:34;34.50;25.20
4910;DHT22;2470;49.868;8.660;2022-08-11T16:17:20;34.40;25.40
4910;DHT22;2470;49.868;8.660;2022-08-11T16:19:50;34.30;25.60
4910;DHT22;2470;49.868;8.660;2022-08-11T16:22:22;34.20;25.40
4910;DHT22;2470;49.868;8.660;2022-08-11T16:24:55;34.10;25.80
4910;DHT22;2470;49.868;8.660;2022-08-11T16:27:22;34.00;26.00
4910;DHT22;2470;49.868;8.660;2022-08-11T16:29:49;33.80;25.90
4910;DHT22;2470;49.868;8.660;2022-08-11T16:32:20;33.70;25.70
4910;DHT22;2470;49.868;8.660;2022-08-11T16:34:59;33.60;25.50
4910;DHT22;2470;49.868;8.660;2022-08-11T16:37:44;33.40;26.20
4910;DHT22;2470;49.868;8.660;2022-08-11T16:40:30;33.30;26.00
4910;DHT22;2470;49.868;8.660;2022-08-11T16:42:57;33.30;26.30
4910;DHT22;2470;49.868;8.660;2022-08-11T16:45:43;33.20;26.00
4910;DHT22;2470;49.868;8.660;2022-08-11T16:48:35;33.10;26.40
4910;DHT22;2470;49.868;8.660;2022-08-11T16:51:00;33.00;26.70
4910;DHT22;2470;49.868;8.660;2022-08-11T16:53:29;32.90;27.00
4910;DHT22;2470;49.868;8.660;2022-08-11T16:55:57;32.90;27.10
4910;DHT22;2470;49.868;8.660;2022-08-11T16:58:27;33.00;27.20
4910;DHT22;2470;49.868;8.660;2022-08-11T17:01:13;33.20;27.00
4910;DHT22;2470;49.868;8.660;2022-08-11T17:03:44;33.30;26.80
4910;DHT22;2470;49.868;8.660;2022-08-11T17:06:31;33.10;26.70
4910;DHT22;2470;49.868;8.660;2022-08-11T17:09:20;33.00;26.80
4910;DHT22;2470;49.868;8.660;2022-08-11T17:12:07;32.80;27.00
4910;DHT22;2470;49.868;8.660;2022-08-11T17:14:55;32.60;27.10
4910;DHT22;2470;49.868;8.660;2022-08-11T17:17:36;32.50;27.20
4910;DHT22;2470;49.868;8.660;2022-08-11T17:20:05;32.40;27.10
4910;DHT22;2470;49.868;8.660;2022-08-11T17:22:36;32.30;27.00
4910;DHT22;2470;49.868;8.660;2022-08-11T17:25:22;32.20;27.30
4910;DHT22;2470;49.868;8.660;2022-08-11T17:27:50;32.10;26.80
4910;DHT22;2470;49.868;8.660;2022-08-11T17:30:16;32.10;27.10
4910;DHT22;2470;49.868;8.660;2022-08-11T17:32:46;32.00;26.80
4910;DHT22;2470;49.868;8.660;2022-08-11T17:35:35;32.10;26.60
4910;DHT22;2470;49.868;8.660;2022-08-11T17:38:17;32.00;27.10
4910;DHT22;2470;49.868;8.660;2022-08-11T17:40:47;32.00;27.30
4910;DHT22;2470;49.868;8.660;2022-08-11T17:43:33;32.00;27.50
4910;DHT22;2470;49.868;8.660;2022-08-11T17:46:17;31.90;27.70
4910;DHT22;2470;49.868;8.660;2022-08-11T17:49:04;31.90;27.60
4910;DHT22;2470;49.868;8.660;2022-08-11T17:51:32;31.80;27.90
4910;DHT22;2470;49.868;8.660;2022-08-11T17:54:18;31.70;27.90
4910;DHT22;2470;49.868;8.660;2022-08-11T17:57:03;31.60;27.90
4910;DHT22;2470;49.868;8.660;2022-08-11T17:59:48;31.50;28.20
4910;DHT22;2470;49.868;8.660;2022-08-11T18:02:20;31.40;28.30
4910;DHT22;2470;49.868;8.660;2022-08-11T18:05:05;31.30;28.50
4910;DHT22;2470;49.868;8.660;2022-08-11T18:07:32;31.20;28.40
4910;DHT22;2470;49.868;8.660;2022-08-11T18:10:17;31.10;28.50
4910;DHT22;2470;49.868;8.660;2022-08-11T18:13:04;31.00;28.50
4910;DHT22;2470;49.868;8.660;2022-08-11T18:15:49;30.90;28.60
4910;DHT22;2470;49.868;8.660;2022-08-11T18:18:34;30.70;28.70
4910;DHT22;2470;49.868;8.660;2022-08-11T18:21:18;30.70;28.90
4910;DHT22;2470;49.868;8.660;2022-08-11T18:24:07;30.60;29.00
4910;DHT22;2470;49.868;8.660;2022-08-11T18:26:54;30.50;29.30
4910;DHT22;2470;49.868;8.660;2022-08-11T18:29:41;30.40;29.30
4910;DHT22;2470;49.868;8.660;2022-08-11T18:32:28;30.30;29.40
4910;DHT22;2470;49.868;8.660;2022-08-11T18:35:15;30.30;29.50
4910;DHT22;2470;49.868;8.660;2022-08-11T18:38:02;30.10;29.60
4910;DHT22;2470;49.868;8.660;2022-08-11T18:40:48;30.00;29.80
4910;DHT22;2470;49.868;8.660;2022-08-11T18:43:36;29.90;30.00
4910;DHT22;2470;49.868;8.660;2022-08-11T18:46:23;29.90;30.00
4910;DHT22;2470;49.868;8.660;2022-08-11T18:49:14;29.80;30.50
4910;DHT22;2470;49.868;8.660;2022-08-11T18:52:02;29.70;30.60
4910;DHT22;2470;49.868;8.660;2022-08-11T18:54:47;29.60;31.30
4910;DHT22;2470;49.868;8.660;2022-08-11T18:57:35;29.40;32.40
4910;DHT22;2470;49.868;8.660;2022-08-11T19:00:22;29.30;33.10
4910;DHT22;2470;49.868;8.660;2022-08-11T19:03:10;29.20;33.00
4910;DHT22;2470;49.868;8.660;2022-08-11T19:05:57;29.10;33.00
4910;DHT22;2470;49.868;8.660;2022-08-11T19:08:47;29.00;33.20
4910;DHT22;2470;49.868;8.660;2022-08-11T19:11:32;28.90;33.80
4910;DHT22;2470;49.868;8.660;2022-08-11T19:14:18;28.90;34.80
4910;DHT22;2470;49.868;8.660;2022-08-11T19:17:04;28.80;34.60
4910;DHT22;2470;49.868;8.660;2022-08-11T19:19:50;28.70;35.30
4910;DHT22;2470;49.868;8.660;2022-08-11T19:22:35;28.70;35.90
4910;DHT22;2470;49.868;8.660;2022-08-11T19:25:21;28.60;36.00
4910;DHT22;2470;49.868;8.660;2022-08-11T19:28:06;28.60;36.40
4910;DHT22;2470;49.868;8.660;2022-08-11T19:30:53;28.50;36.70
4910;DHT22;2470;49.868;8.660;2022-08-11T19:33:39;28.40;36.80
4910;DHT22;2470;49.868;8.660;2022-08-11T19:36:25;28.30;37.20
4910;DHT22;2470;49.868;8.660;2022-08-11T19:39:10;28.20;36.80
4910;DHT22;2470;49.868;8.660;2022-08-11T19:41:56;28.20;36.60
4910;DHT22;2470;49.868;8.660;2022-08-11T19:44:40;28.10;36.70
4910;DHT22;2470;49.868;8.660;2022-08-11T19:47:25;28.00;36.90